Eucla Motel, Australia
Current Conditions -  °F | °C
As of 8:00 PM on Thursday 30 Oct 2014 (Local Time) from YCDU Reporting Station
Clear Clear  
Wind Chill: 73°   Ceiling: Unl
Heat Index: 73°   Visibility: 6mi
Dew Point: 52°   Wind: 8mph
Humidity: 47%   Direction: 140°SE
Pressure: 29.77"   Gusts: NA
Location:  31.68°S, 128.88°E
Report Text: YCDU 301200Z AUTO 14007KT 9999 // NCD 23/11 Q1008
Loading
Personal Weather Stations






























Interactive Weather Map
Tropical Storm Tracking
New forecast layout! Learn more

10-Day Weather Forecast

Advertisements
Track Severe Weather on mobile